EGYPSCRM

Guest
Details From EGYP - Mount Pleasant
To SCRM - TENIENTE RODOLFO MARSH MARTIN
Flight Number -
Tags generated
Created
Modified
Stats Distance 640 nm / 1,186 km
Max Altitude 35,000 ft / 10,668 m
Waypoints 6
Social Downloads 0
Likes 0
Share VATSIM

Download

Looking for another format? Having issues loading an existing format? Contact us
Advertisement - Login to hide

Notes

Basic altitude profile: - Ascent Rate: 2500ft/min - Ascent Speed: 250kts - Cruise Altitude: 35000ft - Cruise Speed: 420kts - Descent Rate: 1500ft/min - Descent Speed: 250kts Options: - Use NATs: yes - Use PACOTS: yes - Use low airways: yes - Use high airways: yes

Route

EGYP OTAGI UT103 RAXOS SCRM

ID Type Via Altitude Latitude Longitude Leg Dist Tot Dist Heading (true) Name
O EGYP APT - 0 ft / 0 m -51.82057˚ -58.44888˚ - 0 nm - Mount Pleasant
OTAGI FIX - 27,000 ft / 8,230 m -53.07694˚ -58.28917˚ 75 nm 75 nm 176° / 176° -
GEMIL FIX UT103 (AWY-HI) 35,000 ft / 10,668 m -55.00028˚ -58.07417˚ 115 nm 191 nm 176° / 176° -
VURGI FIX UT103 (AWY-HI) 35,000 ft / 10,668 m -58.00028˚ -57.68917˚ 180 nm 372 nm 176° / 176° -
RAXOS FIX UT103 (AWY-HI) 23,500 ft / 7,163 m -61.00056˚ -57.22917˚ 180 nm 552 nm 176° / 175° -
O SCRM APT - 0 ft / 0 m -62.19091˚ -58.98722˚ 87 nm 640 nm 214° / 216° TENIENTE RODOLFO MARSH MARTIN

Altitude Profile

Advertisement - Login to hide

Weather


0- 5 10 15 20 25 30 35+ Temperature / ° C

Clouds and Precipitation
Forecast for 2017-12-19 00:00 UTC. Updated 2 hours ago

Ground ~20,000 ft ~40,000 ft Winds

EGYP

Details ICAO EGYP (MPN)
Name Mount Pleasant
Region United Kingdom
Timezone Atlantic/Stanley (UTC-3.0)
Stats Elevation 244 ft / 74 m (AMSL)
Location -51.820574° -58.448876°
Runways 2
Magnetic Variation 3.298° E

METAR

EGYP 181950Z 25029KT 9999 FEW045 13/01 Q1001 BLU NOSIG

Decode

TAF

TAF TAF EGYP 181914Z 1821/1915 26028G38KT 9999 FEW040 BECMG 1821/1824 28018G28KT BECMG 1905/1908 29018KT BECMG 1914/1915 35010KT

Decode

Departure Runways

ID Width Length Bearing (true) Bearing (mag) Surface Threshold Offset Overrun Length
05 82 ft / 25 m 4,974 ft / 1,516 m 55.18° 51.88° Asphalt 0 ft / 0 m 591 ft / 180 m
10 151 ft / 46 m 8,492 ft / 2,588 m 105.24° 101.94° Asphalt 0 ft / 0 m 591 ft / 180 m
23 82 ft / 25 m 4,974 ft / 1,516 m 235.16° 231.86° Asphalt 0 ft / 0 m 72 ft / 22 m
28 151 ft / 46 m 8,492 ft / 2,588 m 285.21° 281.91° Asphalt 0 ft / 0 m 591 ft / 180 m

SCRM

Details ICAO SCRM
Name TENIENTE RODOLFO MARSH MARTIN
Region Chile
Timezone uninhabited (UTC+0.0)
Stats Elevation 147 ft / 45 m (AMSL)
Location -62.190905° -58.987224°
Runways 1
Magnetic Variation 10.825° E

METAR

SCRM 182000Z 02012KT 9999 BKN040 OVC070 M00/M04 Q0980

Decode

TAF

Not found

Destination Runways

ID Width Length Bearing (true) Bearing (mag) Surface Threshold Offset Overrun Length
11 210 ft / 64 m 4,227 ft / 1,288 m 116.91° 106.09° Dirt 0 ft / 0 m 0 ft / 0 m
29 210 ft / 64 m 4,227 ft / 1,288 m 296.89° 286.07° Dirt 0 ft / 0 m 0 ft / 0 m

Popular Alternatives